Time;durP1;ratioP1;P1;durP2;ratioP2;P2;SDS_P1;SDS_P2;PMS_P1;PMS_P2;Temp;Humidity;BMP_temperature;BMP_pressure;BME280_temperature;BME280_humidity;BME280_pressure;Samples;Min_cycle;Max_cycle;Signal;HPM_P1;HPM_P2
2021/04/07 00:01:26;;;;;;;;;;;;;;;9.29;100.00;99742.52;1686686;84;20231;-77
2021/04/07 00:03:54;;;;;;;;;;;;;;;9.33;100.00;99722.77;1687913;85;20271;-76
2021/04/07 00:06:23;;;;;;;;;;;;;;;9.33;100.00;99711.59;1690663;85;21433;-75
2021/04/07 00:08:51;;;;;;;;;;;;;;;9.27;100.00;99707.70;1689502;85;20302;-77
2021/04/07 00:11:19;;;;;;;;;;;;;;;9.21;100.00;99700.41;1687842;85;20157;-77
2021/04/07 00:13:48;;;;;;;;;;;;;;;9.16;100.00;99708.97;1687415;84;20518;-77
2021/04/07 00:16:16;;;;;;;;;;;;;;;9.14;100.00;99721.67;1686990;84;20133;-81
2021/04/07 00:18:46;;;;;;;;;;;;;;;9.12;100.00;99719.22;1686837;84;20331;-78
2021/04/07 00:21:14;;;;;;;;;;;;;;;9.10;100.00;99715.91;1687112;84;20507;-77
2021/04/07 00:23:41;;;;;;;;;;;;;;;9.09;100.00;99722.50;1686747;84;20152;-77
2021/04/07 00:26:09;;;;;;;;;;;;;;;9.07;100.00;99720.48;1686856;85;20602;-76
2021/04/07 00:28:38;;;;;;;;;;;;;;;9.09;100.00;99727.22;1686816;84;20299;-76
2021/04/07 00:31:06;;;;;;;;;;;;;;;9.06;100.00;99720.98;1686997;84;21382;-77
2021/04/07 00:33:34;;;;;;;;;;;;;;;9.01;100.00;99730.83;1686879;84;20508;-76
2021/04/07 00:36:02;;;;;;;;;;;;;;;8.94;100.00;99730.92;1686783;84;20227;-77
2021/04/07 00:38:34;;;;;;;;;;;;;;;8.90;100.00;99736.78;1686754;85;20323;-77
2021/04/07 00:41:03;;;;;;;;;;;;;;;8.91;100.00;99735.03;1686869;85;20275;-77
2021/04/07 00:43:32;;;;;;;;;;;;;;;8.94;100.00;99737.39;1686871;85;21254;-77
2021/04/07 00:45:59;;;;;;;;;;;;;;;8.99;100.00;99727.54;1686553;84;20161;-77
2021/04/07 00:48:28;;;;;;;;;;;;;;;9.04;100.00;99730.13;1686631;84;20498;-77
2021/04/07 00:50:57;;;;;;;;;;;;;;;9.10;100.00;99731.44;1686755;85;20691;-78
2021/04/07 00:53:25;;;;;;;;;;;;;;;9.18;100.00;99731.70;1686835;85;20219;-76
2021/04/07 00:55:53;;;;;;;;;;;;;;;9.23;100.00;99720.98;1687022;84;22298;-78
2021/04/07 00:58:22;;;;;;;;;;;;;;;9.28;100.00;99718.42;1687115;85;20161;-77
2021/04/07 01:00:49;;;;;;;;;;;;;;;9.28;100.00;99713.25;1686821;84;20141;-76
2021/04/07 01:03:19;;;;;;;;;;;;;;;9.31;100.00;99717.36;1686721;85;20256;-76
2021/04/07 01:05:47;;;;;;;;;;;;;;;9.35;100.00;99714.91;1688105;84;20204;-76
2021/04/07 01:08:17;;;;;;;;;;;;;;;9.37;100.00;99729.38;1688146;84;20220;-76
2021/04/07 01:10:46;;;;;;;;;;;;;;;9.38;100.00;99729.70;1687181;85;20319;-76
2021/04/07 01:13:15;;;;;;;;;;;;;;;9.36;100.00;99729.48;1686558;85;20231;-77
2021/04/07 01:15:44;;;;;;;;;;;;;;;9.35;100.00;99725.27;1686798;84;20335;-77
2021/04/07 01:18:13;;;;;;;;;;;;;;;9.36;100.00;99725.59;1674001;85;20358;-81
2021/04/07 01:20:41;;;;;;;;;;;;;;;9.34;100.00;99729.61;1686862;84;21201;-77
2021/04/07 01:23:09;;;;;;;;;;;;;;;9.29;100.00;99724.41;1687109;84;20537;-80
2021/04/07 01:25:37;;;;;;;;;;;;;;;9.21;100.00;99722.88;1686842;85;20224;-76
2021/04/07 01:28:06;;;;;;;;;;;;;;;9.14;100.00;99730.27;1686799;85;20224;-75
2021/04/07 01:30:45;;;;;;;;;;;;;;;9.05;100.00;99727.08;1686869;84;20247;-75
2021/04/07 01:33:04;;;;;;;;;;;;;;;8.97;100.00;99719.87;1685459;84;21462;-75
2021/04/07 01:35:32;;;;;;;;;;;;;;;8.91;100.00;99720.80;1686716;84;20237;-76
2021/04/07 01:38:00;;;;;;;;;;;;;;;8.82;100.00;99715.02;1660730;85;20230;-75
2021/04/07 01:40:28;;;;;;;;;;;;;;;8.76;100.00;99709.00;1653417;86;20673;-76
2021/04/07 01:42:57;;;;;;;;;;;;;;;8.69;100.00;99700.87;1653451;86;20222;-75
2021/04/07 01:45:24;;;;;;;;;;;;;;;8.64;100.00;99707.32;1653528;86;21213;-75
2021/04/07 01:47:55;;;;;;;;;;;;;;;8.58;100.00;99707.77;1653197;86;20240;-75
2021/04/07 01:50:23;;;;;;;;;;;;;;;8.53;100.00;99715.02;1653548;86;20258;-75
2021/04/07 01:52:53;;;;;;;;;;;;;;;8.52;100.00;99713.39;1653280;86;20278;-75
2021/04/07 01:55:22;;;;;;;;;;;;;;;8.55;100.00;99711.87;1653646;86;20497;-75
2021/04/07 01:57:50;;;;;;;;;;;;;;;8.56;100.00;99711.74;1653544;86;21286;-75
2021/04/07 02:00:18;;;;;;;;;;;;;;;8.59;100.00;99702.47;1653804;86;20297;-75
2021/04/07 02:02:47;;;;;;;;;;;;;;;8.66;100.00;99719.20;1655684;86;20275;-74
2021/04/07 02:05:16;;;;;;;;;;;;;;;8.73;100.00;99718.28;1654772;86;20206;-74
2021/04/07 02:07:45;;;;;;;;;;;;;;;8.76;100.00;99718.88;1653481;86;20226;-74
2021/04/07 02:10:14;;;;;;;;;;;;;;;8.80;100.00;99716.44;1653338;86;20324;-74
2021/04/07 02:12:42;;;;;;;;;;;;;;;8.82;100.00;99715.84;1653549;86;20493;-74
2021/04/07 02:15:15;;;;;;;;;;;;;;;8.83;100.00;99716.67;1653409;86;20226;-75
2021/04/07 02:17:44;;;;;;;;;;;;;;;8.82;100.00;99718.43;1653403;86;20254;-76
2021/04/07 02:20:13;;;;;;;;;;;;;;;8.84;100.00;99710.54;1653759;86;20242;-75
2021/04/07 02:22:41;;;;;;;;;;;;;;;8.83;100.00;99708.91;1653528;86;21226;-75
2021/04/07 02:25:09;;;;;;;;;;;;;;;8.86;100.00;99716.45;1653433;86;20635;-74
2021/04/07 02:27:38;;;;;;;;;;;;;;;8.85;100.00;99713.49;1653487;86;20493;-75
2021/04/07 02:30:09;;;;;;;;;;;;;;;8.83;100.00;99717.50;1653487;86;21022;-75
2021/04/07 02:32:36;;;;;;;;;;;;;;;8.81;100.00;99716.77;1653232;86;20249;-75
2021/04/07 02:35:06;;;;;;;;;;;;;;;8.80;100.00;99721.61;1653499;86;21197;-75
2021/04/07 02:37:36;;;;;;;;;;;;;;;8.79;100.00;99721.25;1670315;84;20653;-75
2021/04/07 02:40:05;;;;;;;;;;;;;;;8.79;100.00;99718.66;1686827;84;20219;-75
2021/04/07 02:42:36;;;;;;;;;;;;;;;8.76;100.00;99718.88;1686889;84;20523;-76
2021/04/07 02:45:07;;;;;;;;;;;;;;;8.74;100.00;99712.98;1686750;84;20287;-75
2021/04/07 02:47:35;;;;;;;;;;;;;;;8.73;100.00;99710.06;1686789;85;21241;-75
2021/04/07 02:50:06;;;;;;;;;;;;;;;8.73;100.00;99711.35;1686676;84;20482;-75
2021/04/07 02:52:34;;;;;;;;;;;;;;;8.74;100.00;99714.27;1687585;85;20149;-74
2021/04/07 02:55:02;;;;;;;;;;;;;;;8.74;100.00;99721.23;1689018;84;20152;-74
2021/04/07 02:57:32;;;;;;;;;;;;;;;8.72;100.00;99725.20;1687537;85;20245;-74
2021/04/07 03:00:00;;;;;;;;;;;;;;;8.71;100.00;99737.77;1686899;84;22204;-74
2021/04/07 03:02:28;;;;;;;;;;;;;;;8.69;100.00;99742.25;1686713;84;20261;-73
2021/04/07 03:04:58;;;;;;;;;;;;;;;8.64;100.00;99739.19;1686914;85;20322;-75
2021/04/07 03:07:26;;;;;;;;;;;;;;;8.62;100.00;99741.50;1686682;85;20215;-74
2021/04/07 03:09:54;;;;;;;;;;;;;;;8.60;100.00;99751.97;1686851;84;20342;-74
2021/04/07 03:12:24;;;;;;;;;;;;;;;8.59;100.00;99746.43;1686701;85;21851;-74
2021/04/07 03:14:52;;;;;;;;;;;;;;;8.58;100.00;99754.31;1686630;84;20224;-75
2021/04/07 03:17:20;;;;;;;;;;;;;;;8.56;100.00;99759.58;1686770;84;20303;-75
2021/04/07 03:19:49;;;;;;;;;;;;;;;8.54;100.00;99765.80;1686333;85;20639;-75
2021/04/07 03:22:17;;;;;;;;;;;;;;;8.50;100.00;99759.56;1686677;84;20244;-74
2021/04/07 03:24:45;;;;;;;;;;;;;;;8.45;100.00;99760.38;1686860;85;21283;-75
2021/04/07 03:27:12;;;;;;;;;;;;;;;8.41;100.00;99767.16;1686970;84;20142;-75
2021/04/07 03:29:40;;;;;;;;;;;;;;;8.38;100.00;99771.25;1686955;85;20156;-75
2021/04/07 03:32:08;;;;;;;;;;;;;;;8.35;100.00;99771.47;1686948;85;20315;-75
2021/04/07 03:34:36;;;;;;;;;;;;;;;8.38;100.00;99769.95;1686918;85;20245;-75
2021/04/07 03:37:05;;;;;;;;;;;;;;;8.38;100.00;99770.78;1681115;84;22478;-75
2021/04/07 03:39:32;;;;;;;;;;;;;;;8.38;100.00;99763.03;1653668;86;20685;-75
2021/04/07 03:42:00;;;;;;;;;;;;;;;8.40;100.00;99764.20;1654909;86;20246;-75
2021/04/07 03:44:29;;;;;;;;;;;;;;;8.44;100.00;99777.27;1656498;86;20322;-75
2021/04/07 03:46:57;;;;;;;;;;;;;;;8.46;100.00;99774.09;1654015;86;20285;-75
2021/04/07 03:49:26;;;;;;;;;;;;;;;8.47;100.00;99774.47;1653709;86;21203;-75
2021/04/07 03:51:53;;;;;;;;;;;;;;;8.46;100.00;99777.98;1653560;86;20280;-76
2021/04/07 03:54:21;;;;;;;;;;;;;;;8.45;100.00;99782.35;1653847;86;20236;-74
2021/04/07 03:56:49;;;;;;;;;;;;;;;8.42;100.00;99782.53;1653491;86;20238;-77
2021/04/07 03:59:18;;;;;;;;;;;;;;;8.42;100.00;99781.25;1653715;86;20564;-74
2021/04/07 04:01:46;;;;;;;;;;;;;;;8.36;100.00;99783.47;1653532;86;21197;-74
2021/04/07 04:04:13;;;;;;;;;;;;;;;8.33;100.00;99792.70;1653641;86;20540;-72
2021/04/07 04:06:48;;;;;;;;;;;;;;;8.29;100.00;99804.22;1653731;86;20185;-75
2021/04/07 04:09:14;;;;;;;;;;;;;;;8.20;100.00;99808.22;1653438;86;20249;-74
2021/04/07 04:11:43;;;;;;;;;;;;;;;8.12;100.00;99814.39;1653731;86;20254;-76
2021/04/07 04:14:13;;;;;;;;;;;;;;;8.03;100.00;99816.79;1654041;86;20738;-74
2021/04/07 04:16:42;;;;;;;;;;;;;;;7.92;100.00;99821.39;1653760;86;20518;-74
2021/04/07 04:19:10;;;;;;;;;;;;;;;7.83;100.00;99818.98;1653735;86;20282;-76
2021/04/07 04:21:39;;;;;;;;;;;;;;;7.74;100.00;99822.19;1653696;86;20151;-74
2021/04/07 04:24:08;;;;;;;;;;;;;;;7.69;100.00;99831.98;1653810;86;20541;-75
2021/04/07 04:26:36;;;;;;;;;;;;;;;7.64;100.00;99826.31;1653629;86;21153;-72
2021/04/07 04:29:04;;;;;;;;;;;;;;;7.61;100.00;99832.98;1653461;86;20763;-75
2021/04/07 04:31:32;;;;;;;;;;;;;;;7.61;100.00;99834.73;1655322;86;20230;-75
2021/04/07 04:34:01;;;;;;;;;;;;;;;7.61;100.00;99843.30;1656002;86;20518;-74
2021/04/07 04:36:29;;;;;;;;;;;;;;;7.63;100.00;99846.59;1653927;86;20302;-75
2021/04/07 04:38:57;;;;;;;;;;;;;;;7.62;100.00;99844.14;1687194;83;20497;-73
2021/04/07 04:41:25;;;;;;;;;;;;;;;7.62;100.00;99851.88;1694280;84;20300;-72
2021/04/07 04:43:54;;;;;;;;;;;;;;;7.64;100.00;99853.88;1694368;84;20295;-74
2021/04/07 04:46:22;;;;;;;;;;;;;;;7.67;100.00;99857.09;1694479;84;20248;-76
2021/04/07 04:48:50;;;;;;;;;;;;;;;7.66;100.00;99864.95;1694095;84;20180;-74
2021/04/07 04:51:19;;;;;;;;;;;;;;;7.66;100.00;99873.50;1694445;84;21371;-76
2021/04/07 04:53:47;;;;;;;;;;;;;;;7.63;99.93;99871.13;1694168;83;20322;-77
2021/04/07 04:56:17;;;;;;;;;;;;;;;7.61;99.08;99867.83;1694393;83;20243;-77
2021/04/07 04:58:44;;;;;;;;;;;;;;;7.65;98.92;99869.75;1694171;84;20231;-76
2021/04/07 05:01:14;;;;;;;;;;;;;;;7.70;98.54;99868.97;1694414;84;20502;-76
2021/04/07 05:03:44;;;;;;;;;;;;;;;7.74;97.88;99867.84;1694514;84;21199;-76
2021/04/07 05:06:14;;;;;;;;;;;;;;;7.68;93.36;99867.80;1694444;84;20314;-76
2021/04/07 05:08:48;;;;;;;;;;;;;;;7.60;91.26;99876.50;1694521;84;20515;-75
2021/04/07 05:11:16;;;;;;;;;;;;;;;7.51;89.03;99888.72;1694356;84;20522;-73
2021/04/07 05:13:45;;;;;;;;;;;;;;;7.42;87.91;99902.23;1694252;84;20270;-72
2021/04/07 05:16:16;;;;;;;;;;;;;;;7.37;87.54;99905.59;1694410;84;21468;-76
2021/04/07 05:18:44;;;;;;;;;;;;;;;7.34;85.92;99902.72;1694192;84;20273;-74
2021/04/07 05:21:13;;;;;;;;;;;;;;;7.31;86.02;99899.05;1694852;84;20239;-74
2021/04/07 05:23:42;;;;;;;;;;;;;;;7.29;84.47;99902.66;1694857;83;20627;-78
2021/04/07 05:26:10;;;;;;;;;;;;;;;7.27;84.69;99906.65;1694535;84;20235;-76
2021/04/07 05:28:40;;;;;;;;;;;;;;;7.31;84.80;99905.96;1694569;84;21364;-74
2021/04/07 05:31:10;;;;;;;;;;;;;;;7.34;84.45;99898.02;1694380;84;20223;-75
2021/04/07 05:33:39;;;;;;;;;;;;;;;7.37;84.20;99903.81;1694351;84;20140;-72
2021/04/07 05:36:11;;;;;;;;;;;;;;;7.42;84.22;99900.95;1694411;84;20231;-76
2021/04/07 05:38:41;;;;;;;;;;;;;;;7.49;84.02;99897.50;1689921;84;20227;-76
2021/04/07 05:41:10;;;;;;;;;;;;;;;7.52;82.88;99888.27;1687061;84;22403;-75
2021/04/07 05:43:39;;;;;;;;;;;;;;;7.54;82.86;99882.53;1686728;85;20261;-77
2021/04/07 05:46:09;;;;;;;;;;;;;;;7.61;83.31;99883.33;1686632;85;20133;-76
2021/04/07 05:48:37;;;;;;;;;;;;;;;7.71;83.37;99873.21;1686876;84;20236;-76
2021/04/07 05:51:06;;;;;;;;;;;;;;;7.80;82.97;99864.84;1686910;84;20715;-79
2021/04/07 05:53:33;;;;;;;;;;;;;;;7.93;82.49;99861.80;1686789;85;21270;-77
2021/04/07 05:56:03;;;;;;;;;;;;;;;8.05;81.79;99865.30;1688412;84;20308;-79
2021/04/07 05:58:31;;;;;;;;;;;;;;;8.17;80.99;99852.36;1695596;82;20246;-77
2021/04/07 06:00:59;;;;;;;;;;;;;;;8.36;80.51;99847.60;1708810;83;20283;-75
2021/04/07 06:03:27;;;;;;;;;;;;;;;8.49;79.60;99836.77;1708054;83;20527;-74
2021/04/07 06:05:55;;;;;;;;;;;;;;;8.53;79.02;99822.33;1707054;83;21209;-77
2021/04/07 06:08:22;;;;;;;;;;;;;;;8.54;78.53;99816.23;1707236;83;20121;-79
2021/04/07 06:10:52;;;;;;;;;;;;;;;8.54;78.45;99819.65;1708064;82;20515;-78
2021/04/07 06:13:36;;;;;;;;;;;;;;;8.57;78.67;99837.53;1707295;84;20228;-81
2021/04/07 06:15:58;;;;;;;;;;;;;;;8.61;78.67;99844.61;1705755;84;20204;-77
2021/04/07 06:18:28;;;;;;;;;;;;;;;8.63;78.85;99859.08;1707247;84;23232;-75
2021/04/07 06:21:04;;;;;;;;;;;;;;;8.65;78.72;99870.13;1707338;83;20299;-79
2021/04/07 06:23:41;;;;;;;;;;;;;;;8.60;77.71;99870.09;1686833;84;20259;-78
2021/04/07 06:26:11;;;;;;;;;;;;;;;8.50;77.95;99881.09;1707464;82;20593;-76
2021/04/07 06:28:40;;;;;;;;;;;;;;;8.38;77.55;99887.13;1707771;83;20518;-77
2021/04/07 06:31:10;;;;;;;;;;;;;;;8.32;78.24;99898.34;1708181;84;21829;-79
2021/04/07 06:33:41;;;;;;;;;;;;;;;8.23;78.32;99907.50;1708772;83;20157;-78
2021/04/07 06:36:09;;;;;;;;;;;;;;;8.12;78.52;99902.72;1708804;83;20327;-76
2021/04/07 06:38:38;;;;;;;;;;;;;;;8.02;78.80;99911.55;1689617;84;20303;-79
2021/04/07 06:41:10;;;;;;;;;;;;;;;7.98;79.22;99912.22;1694345;84;20235;-74
2021/04/07 06:43:41;;;;;;;;;;;;;;;7.94;79.05;99914.64;1694198;83;22308;-78
2021/04/07 06:46:11;;;;;;;;;;;;;;;7.92;79.48;99910.52;1694459;84;20303;-75
2021/04/07 06:48:39;;;;;;;;;;;;;;;7.98;79.53;99907.52;1719447;83;20182;-77
2021/04/07 06:51:07;;;;;;;;;;;;;;;8.04;79.42;99912.76;1697181;84;20257;-77
2021/04/07 06:53:35;;;;;;;;;;;;;;;8.08;79.36;99900.80;1697480;84;20187;-76
2021/04/07 06:56:10;;;;;;;;;;;;;;;8.15;79.46;99887.00;1719443;82;21194;-78
2021/04/07 06:58:39;;;;;;;;;;;;;;;8.21;78.92;99865.44;1714587;82;20239;-74
2021/04/07 07:01:07;;;;;;;;;;;;;;;8.34;79.11;99875.33;1701897;83;20223;-75
2021/04/07 07:03:36;;;;;;;;;;;;;;;8.47;78.17;99880.48;1719618;83;21187;-75
2021/04/07 07:06:05;;;;;;;;;;;;;;;8.53;77.78;99893.44;1696915;83;20267;-76
2021/04/07 07:08:35;;;;;;;;;;;;;;;8.57;76.62;99911.69;1735863;82;21392;-77
2021/04/07 07:11:14;;;;;;;;;;;;;;;8.55;76.73;99909.23;1734916;81;20865;-76
2021/04/07 07:13:44;;;;;;;;;;;;;;;8.61;76.47;99915.27;1738403;82;20627;-77
2021/04/07 07:16:26;;;;;;;;;;;;;;;8.63;75.83;99911.27;1738623;82;20253;-81
2021/04/07 07:18:56;;;;;;;;;;;;;;;8.50;76.29;99916.46;1738190;82;20226;-75
2021/04/07 07:21:25;;;;;;;;;;;;;;;8.47;76.40;99922.68;1738077;81;21422;-72
2021/04/07 07:23:56;;;;;;;;;;;;;;;8.48;76.59;99928.68;1741816;82;20300;-76
2021/04/07 07:26:25;;;;;;;;;;;;;;;8.45;76.29;99940.06;1743210;81;20292;-75
2021/04/07 07:28:56;;;;;;;;;;;;;;;8.47;76.75;99946.41;1743190;82;20292;-77
2021/04/07 07:31:29;;;;;;;;;;;;;;;8.44;76.74;99941.45;1746402;81;20212;-78
2021/04/07 07:34:02;;;;;;;;;;;;;;;8.44;76.93;99934.52;1747267;81;21796;-76
2021/04/07 07:36:33;;;;;;;;;;;;;;;8.47;76.22;99943.83;1746296;80;20241;-77
2021/04/07 07:39:05;;;;;;;;;;;;;;;8.48;76.65;99963.59;1741467;81;20418;-78
2021/04/07 07:41:35;;;;;;;;;;;;;;;8.55;76.71;99962.23;1735178;82;20245;-70
2021/04/07 07:44:07;;;;;;;;;;;;;;;8.56;75.71;99960.45;1706465;84;20227;-80
2021/04/07 07:46:37;;;;;;;;;;;;;;;8.46;75.43;99971.43;1709583;82;21165;-81
2021/04/07 07:49:19;;;;;;;;;;;;;;;8.31;76.38;99980.23;1709412;83;20252;-73
2021/04/07 07:51:48;;;;;;;;;;;;;;;8.23;76.47;99982.45;1752073;81;20256;-77
2021/04/07 07:54:19;;;;;;;;;;;;;;;8.22;76.13;99986.45;1721920;81;20217;-77
2021/04/07 07:56:50;;;;;;;;;;;;;;;8.09;75.19;99999.37;1743458;81;20258;-79
2021/04/07 07:59:31;;;;;;;;;;;;;;;7.92;75.35;100017.27;1758790;81;21205;-77
2021/04/07 08:01:59;;;;;;;;;;;;;;;7.73;75.99;100023.25;1756947;81;20221;-78
2021/04/07 08:04:31;;;;;;;;;;;;;;;7.60;76.73;100030.58;1744607;81;20286;-81
2021/04/07 08:06:59;;;;;;;;;;;;;;;7.54;77.12;100056.34;1750939;80;20237;-75
2021/04/07 08:09:28;;;;;;;;;;;;;;;7.48;77.00;100060.59;1737231;81;20226;-78
2021/04/07 08:11:58;;;;;;;;;;;;;;;7.32;76.85;100063.31;1737125;82;21201;-77
2021/04/07 08:14:27;;;;;;;;;;;;;;;7.19;77.30;100077.89;1737167;82;20142;-76
2021/04/07 08:16:55;;;;;;;;;;;;;;;7.10;77.92;100091.81;1737268;82;20229;-81
2021/04/07 08:19:24;;;;;;;;;;;;;;;7.04;77.83;100120.56;1737480;81;20285;-74
2021/04/07 08:21:53;;;;;;;;;;;;;;;6.93;78.27;100132.80;1737876;82;20229;-77
2021/04/07 08:24:25;;;;;;;;;;;;;;;6.89;78.62;100146.33;1737479;82;21220;-75
2021/04/07 08:26:53;;;;;;;;;;;;;;;6.82;79.30;100158.41;1745997;81;20227;-78
2021/04/07 08:29:22;;;;;;;;;;;;;;;6.84;79.38;100155.27;1767544;81;20132;-74
2021/04/07 08:31:50;;;;;;;;;;;;;;;6.84;79.04;100164.30;1767571;81;20226;-77
2021/04/07 08:34:22;;;;;;;;;;;;;;;6.76;76.84;100173.79;1767513;80;20317;-80
2021/04/07 08:36:50;;;;;;;;;;;;;;;6.59;77.00;100172.63;1767790;81;21213;-77
2021/04/07 08:39:18;;;;;;;;;;;;;;;6.43;77.37;100167.14;1767494;80;20239;-73
2021/04/07 08:41:47;;;;;;;;;;;;;;;6.29;77.84;100164.88;1767875;81;20223;-76
2021/04/07 08:44:17;;;;;;;;;;;;;;;6.24;79.13;100157.05;1767966;80;20282;-79
2021/04/07 08:46:53;;;;;;;;;;;;;;;6.09;79.57;100152.75;1767812;80;20279;-79
2021/04/07 08:49:45;;;;;;;;;;;;;;;5.92;81.33;100144.66;1767724;81;21331;-81
2021/04/07 08:52:20;;;;;;;;;;;;;;;5.78;82.40;100139.39;1767470;80;20243;-80
2021/04/07 08:54:50;;;;;;;;;;;;;;;5.68;82.23;100139.55;1767641;81;20541;-78
2021/04/07 08:57:35;;;;;;;;;;;;;;;5.66;82.67;100142.64;1767681;81;20254;-82
2021/04/07 09:00:11;;;;;;;;;;;;;;;5.73;83.28;100140.12;1767657;81;20223;-79
2021/04/07 09:02:58;;;;;;;;;;;;;;;5.85;83.78;100148.45;1767933;81;21143;-78
2021/04/07 09:05:37;;;;;;;;;;;;;;;5.87;80.84;100150.98;1767628;81;20128;-78
2021/04/07 09:08:06;;;;;;;;;;;;;;;5.83;81.12;100149.84;1767871;81;20136;-76
2021/04/07 09:10:43;;;;;;;;;;;;;;;5.84;80.61;100151.94;1767587;81;20267;-83
2021/04/07 09:13:13;;;;;;;;;;;;;;;5.86;80.45;100154.02;1767428;81;20227;-74
2021/04/07 09:16:00;;;;;;;;;;;;;;;5.98;80.33;100151.22;1749490;81;21278;-76
2021/04/07 09:18:37;;;;;;;;;;;;;;;6.04;80.02;100170.19;1766431;80;20302;-76
2021/04/07 09:21:21;;;;;;;;;;;;;;;6.01;80.37;100180.66;1767161;81;20224;-79
2021/04/07 09:23:51;;;;;;;;;;;;;;;5.94;80.86;100199.48;1764642;81;20223;-78
2021/04/07 09:26:25;;;;;;;;;;;;;;;5.82;81.64;100206.10;1767346;81;20517;-78
2021/04/07 09:28:53;;;;;;;;;;;;;;;5.65;81.15;100203.59;1767755;80;21380;-78
2021/04/07 09:31:38;;;;;;;;;;;;;;;5.46;83.77;100202.05;1767828;81;20135;-77
2021/04/07 09:34:07;;;;;;;;;;;;;;;5.21;85.76;100197.35;1767660;81;20200;-78
2021/04/07 09:36:36;;;;;;;;;;;;;;;4.99;87.89;100196.33;1767864;81;20915;-73
2021/04/07 09:39:09;;;;;;;;;;;;;;;4.82;87.31;100196.33;1768697;80;20239;-74
2021/04/07 09:41:46;;;;;;;;;;;;;;;4.79;89.41;100213.20;1773103;81;21179;-77
2021/04/07 09:44:16;;;;;;;;;;;;;;;4.73;89.54;100212.22;1772502;80;20248;-80
2021/04/07 09:46:53;;;;;;;;;;;;;;;4.61;91.50;100226.95;1772478;81;20932;-79
2021/04/07 09:49:29;;;;;;;;;;;;;;;4.51;91.47;100241.14;1772436;81;20703;-79
2021/04/07 09:51:58;;;;;;;;;;;;;;;4.34;91.96;100253.97;1772706;80;20232;-74
2021/04/07 09:54:37;;;;;;;;;;;;;;;4.25;92.08;100257.33;1772739;81;21180;-78
2021/04/07 09:57:10;;;;;;;;;;;;;;;4.21;92.72;100280.68;1754300;81;20540;-77
2021/04/07 09:59:49;;;;;;;;;;;;;;;4.13;91.56;100316.97;1772482;81;20290;-79
2021/04/07 10:02:29;;;;;;;;;;;;;;;4.02;91.04;100329.91;1772545;81;20227;-76
2021/04/07 10:04:59;;;;;;;;;;;;;;;3.95;91.91;100310.55;1755995;80;20210;-79
2021/04/07 10:07:29;;;;;;;;;;;;;;;3.93;92.08;100323.88;1772963;80;22574;-76
2021/04/07 10:09:59;;;;;;;;;;;;;;;3.84;90.88;100303.30;1770141;80;20644;-80
2021/04/07 10:12:32;;;;;;;;;;;;;;;3.77;90.52;100308.77;1767601;80;20252;-75
2021/04/07 10:15:01;;;;;;;;;;;;;;;3.67;91.03;100322.00;1767624;81;20228;-78
2021/04/07 10:17:31;;;;;;;;;;;;;;;3.62;92.07;100323.10;1767690;81;20489;-78
2021/04/07 10:20:08;;;;;;;;;;;;;;;3.57;92.18;100310.45;1767431;81;21138;-75
2021/04/07 10:22:37;;;;;;;;;;;;;;;3.39;91.62;100311.69;1766105;81;20520;-76
2021/04/07 10:25:15;;;;;;;;;;;;;;;3.33;91.85;100311.95;1767366;80;20215;-77
2021/04/07 10:27:44;;;;;;;;;;;;;;;3.26;92.58;100324.20;1767588;80;20508;-80
2021/04/07 10:30:15;;;;;;;;;;;;;;;3.23;92.62;100326.89;1767677;80;20211;-76
2021/04/07 10:32:46;;;;;;;;;;;;;;;3.27;92.69;100322.47;1767074;80;21193;-76
2021/04/07 10:35:28;;;;;;;;;;;;;;;3.36;92.90;100337.47;1767147;81;20613;-80
2021/04/07 10:38:09;;;;;;;;;;;;;;;3.47;91.68;100354.09;1767204;81;20226;-75
2021/04/07 10:40:39;;;;;;;;;;;;;;;3.50;92.03;100368.52;1767286;79;20215;-81
2021/04/07 10:43:14;;;;;;;;;;;;;;;3.56;91.73;100371.67;1767490;81;20215;-78
2021/04/07 10:46:01;;;;;;;;;;;;;;;3.59;92.37;100388.22;1767411;80;21251;-78
2021/04/07 10:48:30;;;;;;;;;;;;;;;3.56;91.22;100401.17;1767491;80;20326;-78
2021/04/07 10:51:01;;;;;;;;;;;;;;;3.57;91.03;100393.03;1767793;81;20187;-77
2021/04/07 10:53:38;;;;;;;;;;;;;;;3.58;90.89;100398.08;1767295;81;20133;-77
2021/04/07 10:56:16;;;;;;;;;;;;;;;3.63;90.31;100397.46;1767761;81;20712;-81
2021/04/07 10:58:57;;;;;;;;;;;;;;;3.69;89.92;100403.61;1767712;80;21296;-74
2021/04/07 11:01:30;;;;;;;;;;;;;;;3.76;88.77;100414.45;1767804;81;20211;-81
2021/04/07 11:04:21;;;;;;;;;;;;;;;3.85;89.54;100415.80;1767466;80;20287;-79
2021/04/07 11:06:58;;;;;;;;;;;;;;;4.00;90.06;100433.11;1767608;80;20148;-79
2021/04/07 11:09:36;;;;;;;;;;;;;;;4.07;87.72;100422.97;1746673;81;20219;-76
2021/04/07 11:11:59;;;;;;;;;;;;;;;4.08;87.65;100411.80;1766755;81;21108;-80
2021/04/07 11:14:28;;;;;;;;;;;;;;;4.17;88.07;100396.83;1767815;81;20211;-81
2021/04/07 11:16:59;;;;;;;;;;;;;;;4.30;86.71;100404.83;1767825;81;20231;-78
2021/04/07 11:19:36;;;;;;;;;;;;;;;4.41;85.56;100400.47;1767273;80;20619;-81
2021/04/07 11:22:10;;;;;;;;;;;;;;;4.53;85.41;100387.91;1767249;80;20302;-74
2021/04/07 11:24:44;;;;;;;;;;;;;;;4.80;84.26;100382.80;1767377;81;20967;-75
2021/04/07 11:27:14;;;;;;;;;;;;;;;5.00;83.39;100366.88;1767275;81;20502;-81
2021/04/07 11:29:45;;;;;;;;;;;;;;;5.09;82.34;100366.44;1767495;81;20596;-78
2021/04/07 11:32:16;;;;;;;;;;;;;;;5.01;80.39;100397.66;1767350;80;20195;-79
2021/04/07 11:34:56;;;;;;;;;;;;;;;4.94;80.23;100410.89;1763278;81;20573;-78
2021/04/07 11:37:36;;;;;;;;;;;;;;;4.82;80.54;100417.89;1766766;80;20274;-77
2021/04/07 11:39:59;;;;;;;;;;;;;;;4.86;81.11;100418.95;1763303;80;20251;-80
2021/04/07 11:42:42;;;;;;;;;;;;;;;4.97;81.38;100425.72;1775446;81;20163;-79
2021/04/07 11:44:57;;;;;;;;;;;;;;;5.01;79.59;100420.80;1771401;81;20171;-76
2021/04/07 11:47:26;;;;;;;;;;;;;;;5.10;79.21;100422.12;1775335;81;20314;-77
2021/04/07 11:49:55;;;;;;;;;;;;;;;5.11;79.16;100418.17;1775730;80;21199;-77
2021/04/07 11:52:22;;;;;;;;;;;;;;;5.16;79.88;100417.97;1775401;80;20716;-77
2021/04/07 11:54:54;;;;;;;;;;;;;;;5.34;79.43;100409.36;1775179;81;20155;-76
2021/04/07 11:57:22;;;;;;;;;;;;;;;5.54;78.42;100430.27;1775563;81;20598;-78
2021/04/07 11:59:56;;;;;;;;;;;;;;;5.59;78.48;100433.44;1775289;81;20223;-78
2021/04/07 12:02:24;;;;;;;;;;;;;;;5.57;77.55;100445.11;1775372;80;21201;-78
2021/04/07 12:04:53;;;;;;;;;;;;;;;5.54;77.97;100443.97;1775077;81;20454;-74
2021/04/07 12:07:21;;;;;;;;;;;;;;;5.71;78.31;100441.87;1775040;81;20239;-79
2021/04/07 12:09:49;;;;;;;;;;;;;;;5.93;75.85;100439.08;1775347;81;20318;-77
2021/04/07 12:12:19;;;;;;;;;;;;;;;5.95;74.10;100455.28;1775467;81;20501;-80
2021/04/07 12:14:47;;;;;;;;;;;;;;;5.91;74.07;100466.63;1775531;81;21205;-75
2021/04/07 12:17:16;;;;;;;;;;;;;;;5.81;73.69;100462.36;1775116;81;20136;-81
2021/04/07 12:19:51;;;;;;;;;;;;;;;5.80;74.39;100460.27;1774896;80;20443;-75
2021/04/07 12:22:25;;;;;;;;;;;;;;;5.75;73.87;100446.77;1774842;81;20147;-80
2021/04/07 12:24:55;;;;;;;;;;;;;;;5.72;74.31;100471.38;1775144;80;20844;-75
2021/04/07 12:27:23;;;;;;;;;;;;;;;5.65;74.06;100471.75;1774914;81;22143;-78
2021/04/07 12:29:53;;;;;;;;;;;;;;;5.67;73.89;100468.66;1775303;81;20711;-77
2021/04/07 12:32:24;;;;;;;;;;;;;;;5.64;73.29;100485.09;1775225;81;20131;-77
2021/04/07 12:34:52;;;;;;;;;;;;;;;5.60;74.04;100503.33;1775077;81;20497;-76
2021/04/07 12:37:24;;;;;;;;;;;;;;;5.59;74.63;100491.35;1775159;81;20135;-76
2021/04/07 12:39:51;;;;;;;;;;;;;;;5.63;74.67;100504.46;1774032;80;21187;-77
2021/04/07 12:42:26;;;;;;;;;;;;;;;5.59;73.84;100499.91;1767206;80;20542;-73
2021/04/07 12:44:50;;;;;;;;;;;;;;;5.59;74.38;100487.05;1766780;81;20243;-73
2021/04/07 12:47:17;;;;;;;;;;;;;;;5.66;74.25;100497.87;1767232;81;20140;-80
2021/04/07 12:49:46;;;;;;;;;;;;;;;5.74;73.62;100494.02;1767109;80;20517;-79
2021/04/07 12:52:16;;;;;;;;;;;;;;;5.77;72.44;100504.64;1766999;80;21635;-81
2021/04/07 12:54:46;;;;;;;;;;;;;;;5.74;71.43;100522.81;1767115;81;20195;-75
2021/04/07 12:57:16;;;;;;;;;;;;;;;5.69;72.24;100528.63;1767344;81;20169;-79
2021/04/07 12:59:44;;;;;;;;;;;;;;;5.63;71.30;100535.35;1767035;80;20278;-73
2021/04/07 13:02:12;;;;;;;;;;;;;;;5.54;72.05;100526.78;1767222;81;20227;-73
2021/04/07 13:04:41;;;;;;;;;;;;;;;5.49;72.71;100521.03;1767130;81;21716;-82
2021/04/07 13:07:09;;;;;;;;;;;;;;;5.52;73.01;100525.55;1767458;81;20504;-76